Time;durP1;ratioP1;P1;durP2;ratioP2;P2;SDS_P1;SDS_P2;PMS_P1;PMS_P2;Temp;Humidity;BMP_temperature;BMP_pressure;BME280_temperature;BME280_humidity;BME280_pressure;Samples;Min_cycle;Max_cycle;Signal;HPM_P1;HPM_P2
2023/07/04 06:04:54;;;;;;;24.30;14.90;;;;;;;18.57;75.95;97026.66;102094;1295;636650;-81
2023/07/04 06:07:22;;;;;;;21.30;14.10;;;;;;;18.56;75.91;97028.40;104569;1270;97423;-81
2023/07/04 06:09:49;;;;;;;23.10;14.40;;;;;;;18.59;76.02;97027.81;104389;1272;97146;-81
2023/07/04 06:12:17;;;;;;;21.10;13.40;;;;;;;18.64;75.88;97028.59;104441;1279;98578;-81
2023/07/04 06:14:45;;;;;;;22.90;13.90;;;;;;;18.70;75.74;97026.20;104347;1269;102168;-81
2023/07/04 06:17:12;;;;;;;26.90;15.10;;;;;;;18.77;75.56;97026.20;104505;1270;98850;-81
2023/07/04 06:19:40;;;;;;;25.50;14.70;;;;;;;18.87;75.39;97031.73;104510;1267;167331;-81
2023/07/04 06:22:08;;;;;;;21.80;14.00;;;;;;;18.96;75.16;97029.05;105116;1260;96770;-81
2023/07/04 06:24:36;;;;;;;21.40;14.10;;;;;;;19.05;74.95;97028.72;104873;1270;100437;-81
2023/07/04 06:27:04;;;;;;;24.00;14.80;;;;;;;19.15;74.64;97029.70;104767;1260;102166;-81
2023/07/04 06:29:32;;;;;;;22.80;14.50;;;;;;;19.26;74.40;97029.04;104822;1263;100677;-81
2023/07/04 06:32:00;;;;;;;25.40;15.30;;;;;;;19.37;74.44;97023.98;104735;1260;95788;-81
2023/07/04 06:34:28;;;;;;;21.20;14.20;;;;;;;19.49;74.26;97023.38;104854;1259;96168;-82
2023/07/04 06:36:56;;;;;;;23.00;14.80;;;;;;;19.59;73.73;97023.67;104680;1263;99952;-81
2023/07/04 06:39:24;;;;;;;21.30;14.10;;;;;;;19.67;73.38;97022.83;105041;1269;102207;-81
2023/07/04 06:41:51;;;;;;;21.30;13.70;;;;;;;19.79;73.12;97025.91;104754;1262;101013;-82
2023/07/04 06:44:19;;;;;;;22.20;13.80;;;;;;;19.91;72.66;97029.39;104774;1262;95969;-82
2023/07/04 06:46:47;;;;;;;23.30;13.60;;;;;;;20.04;72.62;97029.38;104885;1260;95829;-81
2023/07/04 06:49:14;;;;;;;21.80;14.30;;;;;;;20.20;72.63;97032.77;105098;1269;110541;-82
2023/07/04 06:51:42;;;;;;;24.60;14.70;;;;;;;20.34;71.99;97031.45;104914;1270;102163;-82
2023/07/04 06:54:10;;;;;;;24.20;14.30;;;;;;;20.46;71.94;97034.56;104789;1260;106856;-82
2023/07/04 06:56:38;;;;;;;29.90;15.50;;;;;;;20.57;71.32;97034.55;104787;1261;96757;-82
2023/07/04 06:59:06;;;;;;;23.20;13.60;;;;;;;20.66;70.57;97036.46;104986;1259;95983;-82
2023/07/04 07:01:33;;;;;;;20.40;13.10;;;;;;;20.74;70.29;97038.84;105007;1260;99546;-82
2023/07/04 07:04:02;;;;;;;21.10;13.50;;;;;;;20.81;70.20;97042.61;104851;1258;102216;-82
2023/07/04 07:06:30;;;;;;;25.90;13.90;;;;;;;20.89;69.68;97043.20;104837;1260;100870;-82
2023/07/04 07:08:58;;;;;;;19.30;13.20;;;;;;;21.00;69.05;97041.54;105095;1266;95836;-83
2023/07/04 07:11:25;;;;;;;19.50;12.70;;;;;;;21.14;68.42;97041.20;105217;1257;96369;-81
2023/07/04 07:13:53;;;;;;;19.70;12.40;;;;;;;21.26;67.79;97033.27;105224;1264;100898;-81
2023/07/04 07:16:24;;;;;;;24.40;14.00;;;;;;;21.39;67.15;97036.17;105274;1257;102129;-81
2023/07/04 07:18:54;;;;;;;18.30;13.10;;;;;;;21.51;66.75;97040.98;104945;1275;100586;-81
2023/07/04 07:21:24;;;;;;;21.80;13.80;;;;;;;21.62;66.54;97042.48;105043;1272;95944;-81
2023/07/04 07:23:53;;;;;;;20.40;13.40;;;;;;;21.69;66.02;97040.75;104869;1263;96635;-81
2023/07/04 07:26:23;;;;;;;21.20;13.00;;;;;;;21.75;65.66;97040.23;105324;1264;99704;-82
2023/07/04 07:28:51;;;;;;;23.50;13.20;;;;;;;21.80;65.11;97041.61;105052;1254;100614;-82
2023/07/04 07:31:20;;;;;;;18.90;12.70;;;;;;;21.86;65.13;97043.85;105066;1264;109106;-81
2023/07/04 07:33:49;;;;;;;20.10;13.20;;;;;;;21.92;64.83;97043.79;105260;1267;96100;-83
2023/07/04 07:36:21;;;;;;;20.20;13.80;;;;;;;22.00;64.32;97043.11;105018;1263;96037;-82
2023/07/04 07:38:51;;;;;;;21.80;12.70;;;;;;;22.07;63.94;97044.09;105407;1258;101669;-82
2023/07/04 07:41:20;;;;;;;21.40;12.20;;;;;;;22.13;63.58;97045.31;105147;1267;102082;-82
2023/07/04 07:43:49;;;;;;;20.50;12.80;;;;;;;22.19;63.19;97043.83;104838;1270;100856;-82
2023/07/04 07:46:19;;;;;;;22.50;13.60;;;;;;;22.27;63.00;97045.81;105198;1271;95910;-82
2023/07/04 07:48:49;;;;;;;19.80;12.90;;;;;;;22.35;62.59;97046.80;105504;1266;95825;-83
2023/07/04 07:51:18;;;;;;;22.40;13.20;;;;;;;22.43;62.14;97043.49;105193;1267;101340;-82
2023/07/04 07:53:48;;;;;;;20.70;13.30;;;;;;;22.52;61.89;97044.74;105362;1265;100360;-82
2023/07/04 07:56:19;;;;;;;20.10;13.40;;;;;;;22.60;61.59;97044.41;104783;1265;100146;-82
2023/07/04 07:58:47;;;;;;;22.70;13.50;;;;;;;22.71;61.49;97047.18;105121;1266;96109;-84
2023/07/04 08:01:22;;;;;;;22.50;14.00;;;;;;;22.82;61.34;97049.34;105074;1258;95906;-83
2023/07/04 08:03:50;;;;;;;22.20;13.10;;;;;;;22.95;60.99;97047.11;105315;1257;99992;-82
2023/07/04 08:06:30;;;;;;;17.90;12.70;;;;;;;23.12;60.84;97044.52;105236;1265;102160;-83
2023/07/04 08:09:01;;;;;;;20.40;13.50;;;;;;;23.27;60.32;97041.23;105094;1266;100278;-83
2023/07/04 08:11:30;;;;;;;22.10;14.10;;;;;;;23.44;59.99;97043.43;104984;1260;96002;-81
2023/07/04 08:13:59;;;;;;;18.00;12.80;;;;;;;23.59;59.29;97042.64;104972;1257;96127;-82
2023/07/04 08:16:32;;;;;;;21.40;13.20;;;;;;;23.70;58.82;97037.45;104875;1255;101767;-82
2023/07/04 08:19:00;;;;;;;17.20;12.70;;;;;;;23.85;58.66;97036.23;105073;1255;102426;-82
2023/07/04 08:21:29;;;;;;;19.50;11.80;;;;;;;24.02;59.06;97034.30;105155;1256;98742;-82
2023/07/04 08:23:58;;;;;;;20.00;13.10;;;;;;;24.20;58.75;97034.52;105060;1257;97139;-82
2023/07/04 08:26:27;;;;;;;19.80;12.60;;;;;;;24.31;58.52;97032.90;105161;1251;96861;-82
2023/07/04 08:28:56;;;;;;;22.80;13.80;;;;;;;24.47;58.33;97029.52;105219;1255;101708;-83
2023/07/04 08:31:25;;;;;;;21.30;13.60;;;;;;;24.61;57.50;97022.41;105220;1257;101863;-82
2023/07/04 08:33:53;;;;;;;20.00;11.90;;;;;;;24.75;57.30;97021.53;104874;1260;99078;-82
2023/07/04 08:36:21;;;;;;;24.10;12.10;;;;;;;24.96;56.43;97021.66;105229;1258;95828;-82
2023/07/04 08:38:50;;;;;;;18.40;11.40;;;;;;;25.16;55.59;97024.91;104984;1260;95888;-82
2023/07/04 08:41:38;;;;;;;19.80;10.60;;;;;;;25.26;54.31;97021.89;105230;1261;101530;-83
2023/07/04 08:44:22;;;;;;;17.50;9.50;;;;;;;25.33;53.15;97024.17;105172;1254;102305;-82
2023/07/04 08:46:54;;;;;;;17.90;10.30;;;;;;;25.41;52.44;97022.64;105034;1256;98603;-82
2023/07/04 08:49:35;;;;;;;13.60;9.60;;;;;;;25.55;52.44;97022.84;105026;1256;96664;-82
2023/07/04 08:52:10;;;;;;;15.70;10.40;;;;;;;25.71;51.88;97021.81;105175;1257;96775;-83
2023/07/04 08:54:38;;;;;;;16.10;10.10;;;;;;;25.88;51.07;97025.34;105162;1270;101837;-83
2023/07/04 08:57:33;;;;;;;17.50;10.40;;;;;;;26.12;50.75;97019.95;105137;1254;100128;-84
2023/07/04 09:00:10;;;;;;;12.40;9.10;;;;;;;26.37;49.84;97018.13;104854;1270;100806;-86
2023/07/04 09:02:58;;;;;;;18.50;9.90;;;;;;;26.54;49.14;97019.83;104848;1273;95896;-82
2023/07/04 09:06:01;;;;;;;13.30;8.60;;;;;;;26.66;48.54;97024.56;104571;1270;95951;-84
2023/07/04 09:09:03;;;;;;;18.50;9.20;;;;;;;26.74;48.19;97022.81;104771;1263;99744;-82
2023/07/04 09:11:33;;;;;;;15.00;9.50;;;;;;;26.79;48.07;97023.15;104768;1260;100227;-82
2023/07/04 09:14:07;;;;;;;14.90;9.10;;;;;;;26.82;47.88;97022.39;104806;1270;99040;-81
2023/07/04 09:16:40;;;;;;;17.50;8.70;;;;;;;26.82;47.18;97027.48;104661;1263;96018;-82
2023/07/04 09:19:12;;;;;;;14.80;8.90;;;;;;;26.91;46.43;97024.40;104902;1259;97372;-85
2023/07/04 09:21:42;;;;;;;12.90;8.50;;;;;;;26.97;46.60;97017.95;104696;1261;99812;-85
2023/07/04 09:24:10;;;;;;;13.70;8.20;;;;;;;26.99;46.04;97018.05;104596;1270;100185;-82
2023/07/04 09:26:49;;;;;;;14.60;8.80;;;;;;;26.96;45.53;97021.37;104771;1270;101066;-81
2023/07/04 09:29:22;;;;;;;14.40;8.70;;;;;;;26.90;45.50;97019.89;104724;1261;96025;-81
2023/07/04 09:31:54;;;;;;;;;;;;;;;26.77;45.46;97021.77;105241;1254;95997;-81
2023/07/04 09:34:31;;;;;;;14.90;9.90;;;;;;;26.70;45.49;97019.84;105212;1255;99349;-84
2023/07/04 09:37:06;;;;;;;15.60;9.80;;;;;;;26.83;45.53;97012.22;105243;1257;100150;-83
2023/07/04 09:39:55;;;;;;;18.90;9.90;;;;;;;26.97;45.90;97017.39;105211;1266;98607;-85
2023/07/04 09:42:40;;;;;;;14.50;11.00;;;;;;;26.97;45.80;97024.02;105253;1251;96867;-82
2023/07/04 09:45:12;;;;;;;16.10;10.60;;;;;;;26.96;45.88;97022.80;105179;1258;95844;-81
2023/07/04 09:47:45;;;;;;;20.80;10.80;;;;;;;26.82;46.37;97024.87;105295;1251;100026;-82
2023/07/04 09:50:26;;;;;;;19.80;11.20;;;;;;;26.73;47.09;97027.20;104848;1264;100430;-82
2023/07/04 09:53:09;;;;;;;17.20;10.60;;;;;;;26.76;46.89;97027.09;105165;1257;100607;-81
2023/07/04 09:55:39;;;;;;;20.90;11.80;;;;;;;26.58;46.70;97027.23;105265;1251;96125;-81
2023/07/04 09:58:23;;;;;;;16.20;11.20;;;;;;;26.41;46.78;97024.27;105241;1254;95819;-82
2023/07/04 10:01:21;;;;;;;19.70;11.30;;;;;;;26.39;47.04;97020.67;105117;1254;99725;-81
2023/07/04 10:03:50;;;;;;;17.00;10.40;;;;;;;26.62;47.47;97017.81;104744;1262;100361;-82
2023/07/04 10:06:33;;;;;;;15.70;10.70;;;;;;;26.99;47.55;97011.11;104620;1264;99199;-82
2023/07/04 10:09:05;;;;;;;14.10;10.60;;;;;;;27.29;47.11;97004.14;104454;1266;96100;-82
2023/07/04 10:11:39;;;;;;;15.60;10.30;;;;;;;27.33;46.99;97004.20;104199;1270;95864;-82
2023/07/04 10:14:12;;;;;;;21.30;10.30;;;;;;;27.24;46.69;97007.60;104638;1274;99978;-83
2023/07/04 10:16:50;;;;;;;16.10;10.40;;;;;;;27.17;45.97;97013.97;104529;1260;102353;-82
2023/07/04 10:19:22;;;;;;;20.80;10.90;;;;;;;27.09;45.75;97016.79;104573;1261;98685;-83
2023/07/04 10:21:53;;;;;;;17.60;10.70;;;;;;;26.98;45.68;97023.63;104550;1261;97891;-82
2023/07/04 10:24:23;;;;;;;14.90;9.90;;;;;;;26.83;45.76;97023.34;104531;1264;97891;-82
2023/07/04 10:26:59;;;;;;;14.60;10.20;;;;;;;26.89;45.68;97018.40;104553;1265;103312;-82
2023/07/04 10:29:38;;;;;;;15.00;11.00;;;;;;;27.04;46.03;97017.06;104576;1261;100215;-81
2023/07/04 10:32:14;;;;;;;22.20;10.80;;;;;;;27.06;46.14;97019.71;104509;1261;100808;-83
2023/07/04 10:34:45;;;;;;;16.10;9.50;;;;;;;27.22;45.70;97019.46;104500;1260;96628;-83
2023/07/04 10:37:21;;;;;;;14.50;9.40;;;;;;;27.51;45.42;97018.27;104494;1260;97783;-86
2023/07/04 10:39:53;;;;;;;15.00;9.70;;;;;;;27.78;44.67;97019.40;104520;1267;102608;-83
2023/07/04 10:42:55;;;;;;;14.00;8.80;;;;;;;27.89;43.79;97016.39;104869;1260;102144;-83
2023/07/04 10:45:25;;;;;;;13.60;8.80;;;;;;;28.21;44.56;97014.64;105281;1258;108530;-83
2023/07/04 10:47:55;;;;;;;13.90;9.00;;;;;;;28.21;44.15;97017.27;105252;1251;96596;-84
2023/07/04 10:50:30;;;;;;;12.40;8.80;;;;;;;28.01;43.52;97019.70;105266;1264;97087;-83
2023/07/04 10:52:58;;;;;;;16.90;9.10;;;;;;;28.05;43.30;97018.34;105163;1257;103173;-84
2023/07/04 10:55:56;;;;;;;13.90;8.90;;;;;;;28.09;43.13;97013.66;104986;1261;102066;-83
2023/07/04 10:58:27;;;;;;;14.80;8.60;;;;;;;27.92;42.82;97015.89;104981;1256;98906;-84
2023/07/04 11:01:21;;;;;;;14.80;8.40;;;;;;;27.95;42.94;97014.50;104836;1260;96975;-83
2023/07/04 11:03:52;;;;;;;14.20;7.90;;;;;;;28.21;42.18;97008.16;104786;1258;96992;-82
2023/07/04 11:06:37;;;;;;;15.10;8.80;;;;;;;28.35;42.21;97011.59;104848;1260;101442;-82
2023/07/04 11:09:15;;;;;;;11.50;7.00;;;;;;;28.39;42.59;97008.13;104789;1261;102612;-85
2023/07/04 11:11:50;;;;;;;12.20;7.10;;;;;;;28.49;41.71;97004.73;105029;1257;98653;-85
2023/07/04 11:14:27;;;;;;;11.90;7.00;;;;;;;28.77;41.70;96999.98;104659;1263;97952;-82
2023/07/04 11:16:56;;;;;;;9.30;6.50;;;;;;;29.01;40.99;96996.91;104769;1255;96784;-82
2023/07/04 11:19:26;;;;;;;10.10;6.50;;;;;;;29.26;40.50;96997.44;105037;1260;101234;-82
2023/07/04 11:22:02;;;;;;;14.40;6.40;;;;;;;29.44;40.44;96994.00;104905;1258;101302;-82
2023/07/04 11:24:44;;;;;;;13.50;7.80;;;;;;;29.61;40.21;96997.15;104828;1271;99142;-82
2023/07/04 11:27:24;;;;;;;13.70;6.90;;;;;;;29.82;39.93;96991.34;104902;1258;96868;-82
2023/07/04 11:29:58;;;;;;;8.70;6.70;;;;;;;29.96;39.82;96991.90;104991;1254;97817;-83
2023/07/04 11:32:41;;;;;;;13.10;6.60;;;;;;;30.02;39.93;96991.89;105288;1258;101902;-81
2023/07/04 11:35:09;;;;;;;12.30;6.20;;;;;;;30.03;39.91;96988.73;104918;1264;100013;-82
2023/07/04 11:38:05;;;;;;;10.30;6.60;;;;;;;30.12;39.70;96989.81;104784;1262;98993;-82
2023/07/04 11:40:44;;;;;;;11.00;6.40;;;;;;;30.20;39.05;96990.02;105155;1253;96757;-83
2023/07/04 11:43:25;;;;;;;9.20;6.50;;;;;;;30.30;38.66;96992.54;105274;1257;97080;-82
2023/07/04 11:45:55;;;;;;;9.70;7.00;;;;;;;30.36;38.36;96987.19;105221;1258;101349;-83
2023/07/04 11:48:28;;;;;;;12.30;6.20;;;;;;;30.40;38.26;96988.28;104986;1258;100379;-81
2023/07/04 11:51:06;;;;;;;9.40;6.00;;;;;;;30.37;37.83;96992.94;104922;1260;99101;-82
2023/07/04 11:53:45;;;;;;;9.00;6.30;;;;;;;30.48;37.15;96993.05;105150;1277;97853;-83
2023/07/04 11:56:15;;;;;;;10.70;6.90;;;;;;;30.57;37.82;96991.68;105106;1256;98248;-82
2023/07/04 11:58:45;;;;;;;9.60;6.30;;;;;;;30.68;37.04;96989.48;105374;1256;103061;-83
2023/07/04 12:01:15;;;;;;;8.60;6.50;;;;;;;30.60;36.68;96992.07;105416;1251;99959;-83
2023/07/04 12:03:48;;;;;;;12.50;7.50;;;;;;;30.47;37.25;96990.39;105276;1270;101704;-84
2023/07/04 12:06:46;;;;;;;10.40;7.70;;;;;;;30.50;37.02;96986.65;105299;1254;96630;-83
2023/07/04 12:09:23;;;;;;;10.10;7.00;;;;;;;30.58;36.87;96990.67;105397;1253;96523;-83
2023/07/04 12:11:54;;;;;;;13.50;7.70;;;;;;;30.60;36.72;96989.45;106015;1259;103056;-84
2023/07/04 12:14:23;;;;;;;11.30;7.40;;;;;;;30.67;36.13;96986.98;105818;1260;102792;-84
2023/07/04 12:16:51;;;;;;;9.20;7.80;;;;;;;30.76;35.66;96985.36;105648;1255;99440;-83
2023/07/04 12:19:22;;;;;;;10.70;8.10;;;;;;;30.73;36.24;96979.19;105699;1256;96817;-81
2023/07/04 12:21:52;;;;;;;12.70;8.50;;;;;;;30.65;35.89;96975.77;105529;1260;97065;-81
2023/07/04 12:24:24;;;;;;;13.50;8.70;;;;;;;30.74;35.47;96973.20;105229;1259;101389;-81
2023/07/04 12:27:00;;;;;;;9.70;8.30;;;;;;;30.95;35.28;96977.77;105266;1270;108429;-82
2023/07/04 12:29:29;;;;;;;11.30;9.00;;;;;;;30.98;35.21;96978.35;105079;1253;98412;-83
2023/07/04 12:32:06;;;;;;;12.30;8.90;;;;;;;31.02;34.75;96978.94;105258;1256;97766;-81
2023/07/04 12:34:35;;;;;;;11.50;8.60;;;;;;;31.11;34.52;96978.77;104826;1257;98399;-82
2023/07/04 12:37:05;;;;;;;10.10;9.00;;;;;;;31.28;34.12;96976.20;105057;1257;104452;-83
2023/07/04 12:39:43;;;;;;;9.00;7.90;;;;;;;31.39;33.72;96976.02;105167;1252;100378;-84
2023/07/04 12:42:33;;;;;;;11.50;8.10;;;;;;;31.42;32.94;96968.38;105282;1251;100798;-84
2023/07/04 12:45:08;;;;;;;11.50;8.40;;;;;;;31.48;32.51;96967.29;104833;1264;96826;-82
2023/07/04 12:47:37;;;;;;;9.70;7.80;;;;;;;31.57;32.85;96964.48;105008;1261;97138;-82
2023/07/04 12:50:05;;;;;;;8.80;7.30;;;;;;;31.54;33.05;96965.36;105185;1256;110945;-81
2023/07/04 12:52:36;;;;;;;8.20;7.30;;;;;;;31.50;32.30;96956.97;105267;1270;110227;-82
2023/07/04 12:55:12;;;;;;;10.10;6.80;;;;;;;31.51;32.34;96959.88;105261;1255;97714;-84
2023/07/04 12:57:40;;;;;;;7.60;5.80;;;;;;;31.52;32.04;96963.80;105178;1255;97444;-84
2023/07/04 13:00:14;;;;;;;6.60;5.50;;;;;;;31.54;31.64;96963.70;105207;1256;96546;-81
2023/07/04 13:02:48;;;;;;;6.60;5.40;;;;;;;31.59;32.02;96960.45;105344;1254;110168;-81
2023/07/04 13:05:17;;;;;;;7.40;5.40;;;;;;;31.55;32.12;96962.14;105158;1256;100515;-80
2023/07/04 13:07:48;;;;;;;8.90;4.10;;;;;;;31.40;32.20;96962.98;105286;1255;98985;-80
2023/07/04 13:10:26;;;;;;;5.80;5.10;;;;;;;31.26;32.17;96957.48;105228;1257;96558;-81
2023/07/04 13:12:57;;;;;;;5.80;4.80;;;;;;;31.04;32.34;96958.40;105132;1256;97146;-81
2023/07/04 13:15:25;;;;;;;5.40;4.60;;;;;;;30.92;32.89;96958.35;105132;1255;103056;-81
2023/07/04 13:17:58;;;;;;;6.60;4.30;;;;;;;30.77;32.65;96958.95;105443;1251;100093;-80
2023/07/04 13:20:27;;;;;;;4.70;4.00;;;;;;;30.78;32.29;96960.81;105396;1255;98840;-82
2023/07/04 13:22:55;;;;;;;4.70;3.70;;;;;;;30.89;31.99;96962.25;105027;1270;97850;-82
2023/07/04 13:25:36;;;;;;;4.80;3.40;;;;;;;31.00;32.32;96955.42;105032;1259;97115;-82
2023/07/04 13:28:27;;;;;;;4.10;3.10;;;;;;;31.08;32.85;96955.27;104748;1264;103121;-82
2023/07/04 13:31:23;;;;;;;3.90;3.00;;;;;;;31.16;32.18;96956.34;104809;1263;100566;-82
2023/07/04 13:34:15;;;;;;;7.40;2.50;;;;;;;31.06;32.31;96956.77;104988;1254;99071;-82
2023/07/04 13:36:47;;;;;;;;;;;;;;;30.79;32.07;96954.14;105009;1258;96580;-80
2023/07/04 13:39:15;;;;;;;3.60;2.30;;;;;;;30.50;31.95;96956.45;105024;1259;97258;-84
2023/07/04 13:41:45;;;;;;;2.70;2.40;;;;;;;30.48;32.11;96952.30;104987;1270;103246;-82
2023/07/04 13:44:14;;;;;;;5.30;2.20;;;;;;;30.55;31.91;96949.27;104769;1262;102451;-80
2023/07/04 13:46:42;;;;;;;4.50;2.50;;;;;;;30.59;32.59;96950.44;104938;1259;102507;-80
2023/07/04 13:49:10;;;;;;;5.60;2.80;;;;;;;30.60;32.96;96948.72;104978;1259;97459;-81
2023/07/04 13:51:38;;;;;;;3.40;2.80;;;;;;;30.71;32.82;96946.41;105076;1256;97161;-80
2023/07/04 13:54:06;;;;;;;4.20;2.80;;;;;;;30.64;32.97;96944.14;105170;1259;103051;-81
2023/07/04 13:56:34;;;;;;;4.10;3.40;;;;;;;30.57;33.67;96947.44;105255;1256;100378;-81
2023/07/04 13:59:02;;;;;;;4.10;3.40;;;;;;;30.65;34.00;96942.73;105057;1259;99010;-85
2023/07/04 14:01:31;;;;;;;3.50;2.90;;;;;;;30.83;33.57;96938.82;105390;1256;97452;-82
2023/07/04 14:03:59;;;;;;;3.00;2.40;;;;;;;30.98;33.52;96941.33;105665;1252;97226;-83
2023/07/04 14:06:26;;;;;;;2.80;2.20;;;;;;;31.09;32.64;96934.49;105666;1257;101307;-81
2023/07/04 14:08:56;;;;;;;4.90;2.90;;;;;;;31.00;32.60;96934.38;105358;1251;100346;-81
2023/07/04 14:11:24;;;;;;;3.20;2.30;;;;;;;30.87;33.00;96939.02;105390;1251;98965;-81
2023/07/04 14:13:52;;;;;;;6.90;3.30;;;;;;;30.83;32.96;96943.19;105280;1252;96590;-80
2023/07/04 14:16:23;;;;;;;4.70;2.50;;;;;;;30.55;32.98;96947.05;105534;1255;96786;-82
2023/07/04 14:18:51;;;;;;;5.30;2.70;;;;;;;30.25;33.35;96944.34;105650;1255;102980;-81
2023/07/04 14:21:20;;;;;;;3.10;2.50;;;;;;;30.08;33.53;96942.15;105526;1252;100398;-82
2023/07/04 14:23:48;;;;;;;2.50;2.00;;;;;;;30.03;33.62;96943.90;105355;1254;100476;-81
2023/07/04 14:26:24;;;;;;;6.70;2.30;;;;;;;29.98;33.64;96939.27;105268;1255;97630;-81
2023/07/04 14:28:52;;;;;;;4.30;2.60;;;;;;;29.97;33.34;96936.46;105323;1252;98222;-81
2023/07/04 14:31:20;;;;;;;3.30;2.50;;;;;;;29.78;33.63;96940.80;105331;1257;103049;-80
2023/07/04 14:33:49;;;;;;;3.20;2.30;;;;;;;29.51;34.15;96939.27;105451;1256;100357;-81
2023/07/04 14:36:17;;;;;;;2.90;2.10;;;;;;;29.36;34.58;96940.48;105156;1254;98652;-81
2023/07/04 14:38:45;;;;;;;3.50;2.10;;;;;;;29.42;34.22;96938.27;105389;1251;97152;-81
2023/07/04 14:41:14;;;;;;;3.30;2.20;;;;;;;29.63;33.63;96940.86;105369;1256;97038;-82
2023/07/04 14:43:43;;;;;;;3.80;2.40;;;;;;;29.81;33.12;96945.52;105303;1255;101362;-80
2023/07/04 14:46:11;;;;;;;3.60;1.90;;;;;;;29.95;33.38;96945.70;105445;1253;102221;-80
2023/07/04 14:48:39;;;;;;;2.00;1.90;;;;;;;30.03;33.39;96940.96;105008;1263;100071;-81
2023/07/04 14:51:11;;;;;;;2.50;1.90;;;;;;;29.91;33.40;96939.27;104997;1257;97785;-80
2023/07/04 14:53:39;;;;;;;;;;;;;;;29.75;33.94;96942.39;104959;1259;96870;-80
2023/07/04 14:56:10;;;;;;;3.00;1.90;;;;;;;29.63;34.04;96943.41;105078;1261;100850;-80
2023/07/04 14:58:39;;;;;;;4.20;1.90;;;;;;;29.37;34.16;96943.13;105084;1259;102215;-79
2023/07/04 15:01:08;;;;;;;3.50;2.00;;;;;;;29.26;34.05;96941.31;104907;1259;101051;-80
2023/07/04 15:03:36;;;;;;;4.40;2.30;;;;;;;29.16;34.43;96940.16;104741;1260;96606;-81
2023/07/04 15:06:07;;;;;;;4.40;2.30;;;;;;;29.04;33.77;96936.98;105027;1254;98001;-81
2023/07/04 16:30:43;;;;;;;5.50;2.20;;;;;;;26.29;44.32;96953.58;105162;1265;99437;-82
2023/07/04 16:33:10;;;;;;;3.00;1.70;;;;;;;26.28;44.63;96953.52;106728;1260;102045;-80
2023/07/04 16:35:36;;;;;;;3.50;2.00;;;;;;;26.31;44.96;96952.08;106898;1250;96698;-80
2023/07/04 16:38:04;;;;;;;6.10;2.60;;;;;;;26.34;45.33;96956.02;107129;1247;95898;-79
2023/07/04 16:40:30;;;;;;;4.80;2.60;;;;;;;26.33;45.33;96951.84;107134;1241;95837;-80
2023/07/04 16:42:58;;;;;;;4.70;2.50;;;;;;;26.30;45.56;96952.50;107158;1243;96129;-80
2023/07/04 16:45:24;;;;;;;7.90;2.70;;;;;;;26.26;45.87;96955.36;107225;1242;96091;-80
2023/07/04 16:47:50;;;;;;;6.10;2.50;;;;;;;26.22;46.11;96957.30;107270;1246;96801;-79
2023/07/04 16:50:17;;;;;;;2.80;2.40;;;;;;;26.17;45.98;96953.63;107277;1245;95927;-80
2023/07/04 16:52:43;;;;;;;5.70;2.50;;;;;;;26.16;46.40;96952.45;107241;1247;96364;-80
2023/07/04 16:55:10;;;;;;;2.80;2.10;;;;;;;26.14;46.54;96948.67;107293;1242;96828;-80
2023/07/04 16:57:36;;;;;;;4.00;2.50;;;;;;;26.19;46.77;96951.73;107346;1255;95911;-79
2023/07/04 17:00:04;;;;;;;5.00;2.90;;;;;;;26.24;46.57;96949.27;107255;1241;96837;-80
2023/07/04 17:02:31;;;;;;;5.60;2.40;;;;;;;26.18;46.12;96952.77;106832;1248;101254;-80
2023/07/04 17:04:57;;;;;;;6.80;2.80;;;;;;;26.09;46.71;96953.27;107318;1245;95992;-80
2023/07/04 17:07:24;;;;;;;8.90;2.90;;;;;;;26.03;47.01;96956.48;107401;1245;95850;-80
2023/07/04 17:09:50;;;;;;;3.70;2.40;;;;;;;25.96;47.36;96955.49;107172;1255;96072;-80
2023/07/04 17:12:16;;;;;;;5.40;2.50;;;;;;;25.91;48.07;96959.55;107686;1238;101661;-81
2023/07/04 17:14:43;;;;;;;4.10;2.60;;;;;;;25.85;48.58;96960.89;107785;1250;96616;-81
2023/07/04 17:17:09;;;;;;;4.30;2.50;;;;;;;25.74;49.33;96960.44;107608;1241;96099;-81
2023/07/04 17:19:35;;;;;;;4.60;2.50;;;;;;;25.60;49.68;96964.95;107794;1242;96744;-80
2023/07/04 17:22:05;;;;;;;8.00;2.40;;;;;;;25.49;49.94;96966.61;107673;1241;101781;-81
2023/07/04 17:24:31;;;;;;;3.70;2.60;;;;;;;25.47;50.25;96965.39;107650;1252;102134;-80
2023/07/04 17:26:58;;;;;;;2.60;2.30;;;;;;;25.41;50.21;96963.64;107684;1241;95809;-80
2023/07/04 17:29:25;;;;;;;3.00;2.30;;;;;;;25.33;49.99;96962.20;107718;1241;96750;-80
2023/07/04 17:31:53;;;;;;;3.60;2.60;;;;;;;25.26;49.71;96960.44;107691;1241;95860;-80
2023/07/04 17:34:19;;;;;;;2.70;2.50;;;;;;;25.17;49.30;96960.94;107312;1244;97162;-80
2023/07/04 17:36:46;;;;;;;5.00;2.60;;;;;;;25.08;49.72;96961.80;107754;1252;96092;-80
2023/07/04 17:39:12;;;;;;;6.30;2.90;;;;;;;24.97;49.85;96964.13;107717;1250;95933;-80
2023/07/04 17:41:38;;;;;;;4.50;2.60;;;;;;;24.91;50.24;96965.41;107697;1252;96110;-80
2023/07/04 17:44:05;;;;;;;4.00;2.50;;;;;;;24.85;50.40;96962.61;107571;1251;95850;-80
2023/07/04 17:46:31;;;;;;;5.70;2.60;;;;;;;24.61;50.04;96960.71;107627;1241;95826;-80
2023/07/04 17:48:57;;;;;;;8.00;3.00;;;;;;;24.41;50.28;96965.77;107682;1252;95801;-80
2023/07/04 17:51:25;;;;;;;4.10;2.80;;;;;;;24.34;50.78;96967.97;107670;1238;96655;-80
2023/07/04 17:53:51;;;;;;;3.30;2.60;;;;;;;24.27;51.09;96965.60;107656;1252;100485;-80
2023/07/04 17:56:20;;;;;;;5.30;2.70;;;;;;;24.21;51.51;96967.03;107561;1241;95746;-80
2023/07/04 17:58:47;;;;;;;3.40;2.70;;;;;;;24.12;51.55;96966.05;107621;1241;100902;-80
2023/07/04 18:01:15;;;;;;;6.40;2.90;;;;;;;24.02;51.61;96965.66;107577;1241;96753;-81
2023/07/04 18:03:44;;;;;;;4.70;3.10;;;;;;;23.91;51.64;96964.41;107617;1241;95832;-80
2023/07/04 18:06:12;;;;;;;4.30;3.80;;;;;;;23.84;51.55;96972.76;107686;1238;101527;-80
2023/07/04 18:08:41;;;;;;;10.10;6.10;;;;;;;23.70;51.94;96971.73;107685;1252;109246;-81
2023/07/04 18:11:11;;;;;;;90.20;54.00;;;;;;;23.62;52.63;96979.66;107508;1241;100414;-80
2023/07/04 18:13:37;;;;;;;113.40;73.30;;;;;;;23.50;52.85;96982.56;107622;1250;95839;-79
2023/07/04 18:16:04;;;;;;;88.20;54.60;;;;;;;23.40;53.34;96983.95;107669;1241;95799;-80
2023/07/04 18:18:31;;;;;;;26.90;17.40;;;;;;;23.27;53.87;96982.75;107813;1250;95911;-80
2023/07/04 18:21:16;;;;;;;17.40;9.20;;;;;;;23.11;54.30;96982.32;107496;1244;96719;-80
2023/07/04 18:23:47;;;;;;;17.40;11.50;;;;;;;22.93;54.71;96993.16;107406;1251;98921;-80
2023/07/04 18:26:14;;;;;;;15.40;7.90;;;;;;;22.84;55.03;96993.23;107290;1244;96181;-79
2023/07/04 18:28:42;;;;;;;14.50;7.40;;;;;;;22.82;54.89;96991.73;107716;1241;96135;-80
2023/07/04 18:31:12;;;;;;;11.00;4.80;;;;;;;22.73;54.96;96991.36;107760;1241;95847;-80
2023/07/04 18:33:39;;;;;;;8.10;5.20;;;;;;;22.47;54.81;97000.27;107751;1241;103099;-80
2023/07/04 18:36:21;;;;;;;8.90;5.70;;;;;;;22.23;54.77;97004.55;107592;1249;95832;-79
2023/07/04 18:38:48;;;;;;;11.90;5.70;;;;;;;22.05;55.11;97004.64;107567;1238;95883;-79
2023/07/04 18:41:22;;;;;;;9.40;6.10;;;;;;;21.93;55.49;97007.88;107321;1244;96665;-80
2023/07/04 18:43:48;;;;;;;9.80;5.30;;;;;;;21.91;55.65;97017.52;107671;1241;108694;-80
2023/07/04 18:46:20;;;;;;;9.60;5.50;;;;;;;21.94;55.78;97017.02;107659;1250;95847;-79
2023/07/04 18:48:47;;;;;;;10.00;4.80;;;;;;;21.95;55.76;97017.11;107729;1241;100567;-79
2023/07/04 18:51:16;;;;;;;8.30;4.70;;;;;;;21.83;55.37;97022.68;107688;1241;96905;-80
2023/07/04 18:53:43;;;;;;;6.80;4.10;;;;;;;21.70;55.80;97027.06;107811;1241;96725;-79
2023/07/04 18:56:10;;;;;;;7.20;4.10;;;;;;;21.65;56.11;97036.40;107665;1241;95943;-80
2023/07/04 18:58:41;;;;;;;8.00;4.90;;;;;;;21.51;55.83;97038.91;107325;1252;95900;-80
2023/07/04 19:01:11;;;;;;;5.10;4.20;;;;;;;21.35;56.07;97037.30;107787;1241;100641;-79